Time;durP1;ratioP1;P1;durP2;ratioP2;P2;SDS_P1;SDS_P2;PMS_P1;PMS_P2;Temp;Humidity;BMP_temperature;BMP_pressure;BME280_temperature;BME280_humidity;BME280_pressure;Samples;Min_cycle;Max_cycle;Signal;HPM_P1;HPM_P2
2023/02/11 00:02:08;;;;;;;24.80;13.47;;;-1.50;99.90;;;;;;5032700;28;20200;-50
2023/02/11 00:04:35;;;;;;;20.10;12.10;;;-1.40;99.90;;;;;;5032075;28;20298;-49
2023/02/11 00:07:02;;;;;;;25.17;13.00;;;-1.50;99.90;;;;;;5031070;28;20216;-50
2023/02/11 00:09:29;;;;;;;20.70;12.47;;;-1.50;99.90;;;;;;5033020;28;20619;-50
2023/02/11 00:11:56;;;;;;;18.73;11.00;;;-1.50;99.90;;;;;;5031890;28;20213;-50
2023/02/11 00:14:24;;;;;;;16.40;10.50;;;-1.50;99.90;;;;;;5032851;28;20265;-50
2023/02/11 00:16:51;;;;;;;19.00;10.13;;;-1.50;99.90;;;;;;5030607;28;20236;-51
2023/02/11 00:19:19;;;;;;;12.17;8.73;;;-1.40;99.90;;;;;;5030130;28;20197;-51
2023/02/11 00:21:46;;;;;;;14.83;9.17;;;-1.30;99.90;;;;;;5032812;28;20287;-50
2023/02/11 00:24:13;;;;;;;14.77;9.77;;;-1.40;99.90;;;;;;5032678;28;20200;-50
2023/02/11 00:26:40;;;;;;;19.20;8.83;;;-1.40;99.90;;;;;;5031448;28;20216;-50
2023/02/11 00:29:06;;;;;;;15.10;9.07;;;-1.40;99.90;;;;;;5028337;28;20664;-50
2023/02/11 00:31:35;;;;;;;18.27;9.17;;;-1.50;99.90;;;;;;5030673;28;20702;-50
2023/02/11 00:34:02;;;;;;;18.37;9.77;;;-1.40;99.90;;;;;;5033642;28;20196;-49
2023/02/11 00:36:30;;;;;;;14.27;9.70;;;-1.40;99.90;;;;;;5032601;28;20274;-50
2023/02/11 00:38:58;;;;;;;15.30;8.40;;;-1.50;99.90;;;;;;5028272;28;20257;-49
2023/02/11 00:41:25;;;;;;;14.63;9.67;;;-1.50;99.90;;;;;;5031119;28;20257;-51
2023/02/11 00:43:53;;;;;;;19.23;10.50;;;-1.50;99.90;;;;;;5031595;28;20219;-50
2023/02/11 00:46:20;;;;;;;18.07;10.90;;;-1.50;99.90;;;;;;5030689;28;20193;-50
2023/02/11 00:48:50;;;;;;;18.60;10.37;;;-1.60;99.90;;;;;;5031553;28;20253;-50
2023/02/11 00:51:17;;;;;;;17.60;9.87;;;-1.60;99.90;;;;;;5032719;28;20678;-50
2023/02/11 00:53:44;;;;;;;21.53;9.90;;;-1.70;99.90;;;;;;5029305;28;20204;-50
2023/02/11 00:56:11;;;;;;;18.83;10.20;;;-1.70;99.90;;;;;;5029724;28;20225;-49
2023/02/11 00:58:38;;;;;;;13.40;9.13;;;-1.70;99.90;;;;;;5033120;28;20215;-49
2023/02/11 01:01:06;;;;;;;14.37;7.30;;;-1.70;99.90;;;;;;5026395;28;20200;-49
2023/02/11 01:03:33;;;;;;;13.80;8.30;;;-1.70;99.90;;;;;;5022925;28;20210;-50
2023/02/11 01:06:02;;;;;;;11.87;8.53;;;-1.60;99.90;;;;;;5024849;28;20369;-49
2023/02/11 01:08:29;;;;;;;14.43;8.00;;;-1.70;99.90;;;;;;5026759;28;20217;-49
2023/02/11 01:10:58;;;;;;;13.40;8.50;;;-1.70;99.90;;;;;;5029565;28;20741;-49
2023/02/11 01:13:26;;;;;;;12.80;7.37;;;-1.70;99.90;;;;;;5030196;28;20200;-50
2023/02/11 01:15:53;;;;;;;15.90;8.57;;;-1.60;99.90;;;;;;5032521;28;20783;-50
2023/02/11 01:18:20;;;;;;;11.23;7.40;;;-1.70;99.90;;;;;;5025664;28;20289;-49
2023/02/11 01:20:47;;;;;;;9.43;7.17;;;-1.70;99.90;;;;;;5027840;28;20658;-48
2023/02/11 01:23:15;;;;;;;10.07;8.40;;;-1.70;99.90;;;;;;5031903;28;20199;-50
2023/02/11 01:25:42;;;;;;;10.10;6.23;;;-1.70;99.90;;;;;;5031218;28;20198;-50
2023/02/11 01:28:16;;;;;;;14.33;6.83;;;-1.70;99.90;;;;;;5023780;28;20223;-50
2023/02/11 01:30:43;;;;;;;9.30;6.93;;;-1.60;99.90;;;;;;5017593;28;20275;-50
2023/02/11 01:33:10;;;;;;;7.63;6.60;;;-1.60;99.90;;;;;;5031993;28;20204;-49
2023/02/11 01:35:38;;;;;;;8.87;5.97;;;-1.60;99.90;;;;;;5032024;28;20223;-50
2023/02/11 01:38:05;;;;;;;13.27;6.20;;;-1.60;99.90;;;;;;5030302;28;20223;-50
2023/02/11 01:40:34;;;;;;;8.73;6.43;;;-1.70;99.90;;;;;;5032256;28;20253;-50
2023/02/11 01:43:01;;;;;;;11.80;5.40;;;-1.70;99.90;;;;;;5032314;28;20204;-50
2023/02/11 01:46:04;;;;;;;15.30;7.03;;;-1.70;99.90;;;;;;5030875;28;20254;-50
2023/02/11 01:48:36;;;;;;;12.60;6.50;;;-1.80;99.90;;;;;;5030858;28;20292;-50
2023/02/11 01:51:08;;;;;;;9.17;6.40;;;-1.70;99.90;;;;;;5024332;28;20203;-50
2023/02/11 01:59:17;;;;;;;11.03;7.07;;;-1.80;99.90;;;;;;5025697;28;20204;-49
2023/02/11 02:01:48;;;;;;;13.23;8.50;;;-1.90;99.90;;;;;;5018732;28;20204;-49
2023/02/11 02:04:18;;;;;;;15.90;8.23;;;-1.80;99.90;;;;;;5029723;28;20275;-50
2023/02/11 02:06:50;;;;;;;13.10;8.27;;;-1.70;99.90;;;;;;5030156;28;20302;-50
2023/02/11 02:09:20;;;;;;;13.83;8.60;;;-1.80;99.90;;;;;;5023881;28;20197;-50
2023/02/11 02:11:49;;;;;;;14.30;9.63;;;-1.90;99.90;;;;;;5030505;28;20576;-50
2023/02/11 02:14:16;;;;;;;13.53;9.27;;;-2.00;99.90;;;;;;5029268;28;20204;-49
2023/02/11 02:16:45;;;;;;;14.10;9.53;;;-2.00;99.90;;;;;;5029792;28;20290;-50
2023/02/11 02:19:39;;;;;;;15.23;9.20;;;-2.10;99.90;;;;;;5030988;28;20571;-48
2023/02/11 02:22:37;;;;;;;17.30;9.70;;;-2.20;99.90;;;;;;5031308;28;20232;-49
2023/02/11 02:25:25;;;;;;;14.33;8.37;;;-2.20;99.90;;;;;;5030969;28;20206;-50
2023/02/11 02:28:03;;;;;;;14.27;8.27;;;-2.20;99.90;;;;;;5022786;28;20230;-49
2023/02/11 02:30:55;;;;;;;13.77;8.10;;;-2.30;99.90;;;;;;5030302;28;20309;-51
2023/02/11 02:33:36;;;;;;;13.77;8.00;;;-2.30;99.90;;;;;;5025985;28;20195;-50
2023/02/11 02:36:09;;;;;;;15.20;8.77;;;-2.30;99.90;;;;;;5028900;28;20224;-49
2023/02/11 02:38:43;;;;;;;12.27;9.10;;;-2.30;99.90;;;;;;5030570;28;20278;-50
2023/02/11 02:41:12;;;;;;;18.33;9.73;;;-2.30;99.90;;;;;;5030554;28;20204;-49
2023/02/11 02:43:41;;;;;;;18.93;9.87;;;-2.40;99.90;;;;;;5031556;28;20207;-49
2023/02/11 02:46:13;;;;;;;12.40;9.03;;;-2.50;99.90;;;;;;5032223;28;20270;-50
2023/02/11 02:48:42;;;;;;;15.53;9.60;;;-2.50;99.90;;;;;;5029357;28;20291;-49
2023/02/11 02:51:20;;;;;;;16.57;9.60;;;-2.50;99.90;;;;;;5030344;28;20198;-50
2023/02/11 02:53:58;;;;;;;13.63;9.97;;;-2.60;99.90;;;;;;5028831;28;20270;-50
2023/02/11 02:56:32;;;;;;;17.00;10.27;;;-2.60;99.90;;;;;;5029743;28;20227;-50
2023/02/11 02:59:18;;;;;;;14.73;9.43;;;-2.70;99.90;;;;;;5086794;22;20217;-47
2023/02/11 03:01:56;;;;;;;20.67;11.77;;;-2.70;99.90;;;;;;5065551;28;20206;-48
2023/02/11 03:04:30;;;;;;;15.43;9.23;;;-2.70;99.90;;;;;;5067999;28;20200;-48
2023/02/11 03:07:05;;;;;;;13.70;9.30;;;-2.70;99.90;;;;;;5069544;28;20201;-48
2023/02/11 03:09:37;;;;;;;19.30;10.93;;;-2.60;99.90;;;;;;5064659;28;20198;-48
2023/02/11 03:12:06;;;;;;;17.70;10.77;;;-2.60;99.90;;;;;;5069468;28;20202;-48
2023/02/11 03:14:35;;;;;;;15.87;9.37;;;-2.70;99.90;;;;;;5067093;28;20343;-48
2023/02/11 03:17:05;;;;;;;15.03;9.97;;;-2.70;99.90;;;;;;5064263;28;20369;-48
2023/02/11 03:19:38;;;;;;;16.83;10.33;;;-2.70;99.90;;;;;;5068960;28;20248;-48
2023/02/11 03:22:11;;;;;;;15.43;9.60;;;-2.70;99.90;;;;;;5068131;28;20457;-48
2023/02/11 03:24:41;;;;;;;10.70;8.33;;;-2.70;99.90;;;;;;5068591;28;20247;-48
2023/02/11 03:27:15;;;;;;;17.63;9.43;;;-2.70;99.90;;;;;;5068526;28;20195;-48
2023/02/11 03:29:50;;;;;;;12.57;9.90;;;-2.80;99.90;;;;;;5066163;28;20291;-50
2023/02/11 03:32:23;;;;;;;19.43;10.00;;;-2.80;99.90;;;;;;5064102;28;20289;-48
2023/02/11 03:34:57;;;;;;;13.07;9.20;;;-2.80;99.90;;;;;;5067944;28;20274;-48
2023/02/11 03:37:32;;;;;;;19.77;11.33;;;-2.80;99.90;;;;;;5069788;28;20484;-47
2023/02/11 03:40:03;;;;;;;20.37;9.70;;;-2.90;99.90;;;;;;5067116;28;20202;-48
2023/02/11 03:42:38;;;;;;;18.47;10.20;;;-2.80;99.90;;;;;;5066419;28;20520;-47
2023/02/11 03:45:09;;;;;;;16.73;9.87;;;-2.80;99.90;;;;;;5064971;28;20456;-47
2023/02/11 03:47:39;;;;;;;16.17;10.33;;;-2.90;99.90;;;;;;5067437;28;20522;-48
2023/02/11 03:50:10;;;;;;;20.70;10.13;;;-2.90;99.90;;;;;;5066490;28;20509;-48
2023/02/11 03:52:38;;;;;;;19.20;11.30;;;-2.90;99.90;;;;;;5067342;28;20521;-48
2023/02/11 03:55:11;;;;;;;20.57;9.40;;;-2.90;99.90;;;;;;5062558;28;20456;-48
2023/02/11 03:57:38;;;;;;;15.67;10.20;;;-3.00;99.90;;;;;;5063529;28;20947;-48
2023/02/11 04:00:07;;;;;;;22.87;12.47;;;-3.00;99.90;;;;;;5063226;28;20852;-48
2023/02/11 04:02:36;;;;;;;17.53;10.87;;;-2.90;99.90;;;;;;5068896;28;20993;-48
2023/02/11 04:05:05;;;;;;;20.43;10.87;;;-2.90;99.90;;;;;;5068541;28;20485;-48
2023/02/11 04:07:34;;;;;;;18.80;9.03;;;-2.90;99.90;;;;;;5066438;28;20521;-48
2023/02/11 04:10:01;;;;;;;17.73;10.37;;;-3.00;99.90;;;;;;5067810;28;20202;-48
2023/02/11 04:12:28;;;;;;;18.33;11.73;;;-3.00;99.90;;;;;;5068797;28;20799;-49
2023/02/11 04:14:55;;;;;;;19.77;10.20;;;-3.00;99.90;;;;;;5071273;28;20520;-48
2023/02/11 04:17:21;;;;;;;16.73;9.67;;;-3.00;99.90;;;;;;5062366;28;20479;-48
2023/02/11 04:19:48;;;;;;;19.27;9.67;;;-3.00;99.90;;;;;;5072160;28;20449;-47
2023/02/11 04:22:15;;;;;;;14.77;9.00;;;-3.10;99.90;;;;;;5071429;28;20519;-47
2023/02/11 04:24:44;;;;;;;21.47;12.10;;;-2.90;99.90;;;;;;5070462;28;20858;-48
2023/02/11 04:27:11;;;;;;;17.40;10.80;;;-3.10;99.90;;;;;;5071081;28;20474;-48
2023/02/11 04:29:38;;;;;;;17.43;10.87;;;-3.00;99.90;;;;;;5071724;28;20463;-48
2023/02/11 04:32:05;;;;;;;18.00;10.83;;;-3.10;99.90;;;;;;5071111;28;20537;-48
2023/02/11 04:34:32;;;;;;;15.47;10.40;;;-3.10;99.90;;;;;;5070349;28;20905;-48
2023/02/11 04:36:59;;;;;;;16.10;11.10;;;-3.10;99.90;;;;;;5061109;28;20526;-48
2023/02/11 04:39:26;;;;;;;17.33;11.83;;;-3.00;99.90;;;;;;5072835;28;20448;-48
2023/02/11 04:41:54;;;;;;;19.77;11.97;;;-3.00;99.90;;;;;;5071504;28;20473;-48
2023/02/11 04:44:21;;;;;;;19.97;12.57;;;-3.00;99.90;;;;;;5071488;28;20455;-48
2023/02/11 04:46:48;;;;;;;16.27;11.30;;;-3.00;99.90;;;;;;5071804;28;20439;-48
2023/02/11 04:49:16;;;;;;;14.40;10.30;;;-3.00;99.90;;;;;;5072585;28;20471;-48
2023/02/11 04:51:44;;;;;;;18.87;11.10;;;-3.00;99.90;;;;;;5069903;28;20467;-48
2023/02/11 04:54:12;;;;;;;17.53;10.70;;;-3.00;99.90;;;;;;5071577;28;20668;-49
2023/02/11 04:56:39;;;;;;;16.40;11.30;;;-3.10;99.90;;;;;;5071546;28;20510;-48
2023/02/11 04:59:08;;;;;;;20.30;10.97;;;-3.10;99.90;;;;;;5068378;28;20492;-48
2023/02/11 05:01:35;;;;;;;15.47;10.37;;;-3.10;99.90;;;;;;5068627;28;20517;-48
2023/02/11 05:04:02;;;;;;;19.17;10.80;;;-3.10;99.90;;;;;;5060747;28;20854;-48
2023/02/11 05:06:29;;;;;;;18.73;11.17;;;-3.20;99.90;;;;;;5064722;28;20459;-48
2023/02/11 05:08:56;;;;;;;16.33;8.93;;;-3.20;99.90;;;;;;5068370;28;20841;-48
2023/02/11 05:11:25;;;;;;;18.73;12.30;;;-3.10;99.90;;;;;;5066398;28;20816;-48
2023/02/11 05:13:53;;;;;;;17.30;11.03;;;-3.10;99.90;;;;;;5069747;28;20284;-48
2023/02/11 05:16:21;;;;;;;18.37;10.80;;;-3.10;99.90;;;;;;5070969;28;20463;-48
2023/02/11 05:18:49;;;;;;;17.77;9.27;;;-3.20;99.90;;;;;;5069868;28;20483;-48
2023/02/11 05:21:18;;;;;;;18.27;10.50;;;-3.20;99.90;;;;;;5069761;28;20456;-48
2023/02/11 05:23:46;;;;;;;18.73;10.57;;;-3.20;99.90;;;;;;5070884;28;20482;-48
2023/02/11 05:26:13;;;;;;;16.57;11.10;;;-3.20;99.90;;;;;;5071257;28;20558;-49
2023/02/11 05:28:41;;;;;;;14.53;9.90;;;-3.20;99.90;;;;;;5070778;28;20554;-48
2023/02/11 05:31:09;;;;;;;18.77;10.90;;;-3.20;99.90;;;;;;5071556;28;20443;-48
2023/02/11 05:33:37;;;;;;;17.67;10.77;;;-3.20;99.90;;;;;;5071381;28;20239;-48
2023/02/11 05:36:07;;;;;;;16.87;10.83;;;-3.20;99.90;;;;;;5068108;28;20463;-48
2023/02/11 05:38:34;;;;;;;17.83;11.23;;;-3.20;99.90;;;;;;5070499;28;20479;-48
2023/02/11 05:41:02;;;;;;;21.87;12.53;;;-3.20;99.90;;;;;;5071948;28;20513;-48
2023/02/11 05:43:29;;;;;;;21.47;12.37;;;-3.20;99.90;;;;;;5071687;28;20502;-49
2023/02/11 05:45:56;;;;;;;17.73;10.10;;;-3.20;99.90;;;;;;5071633;28;20525;-48
2023/02/11 05:48:23;;;;;;;15.57;10.53;;;-3.20;99.90;;;;;;5070697;28;20592;-48
2023/02/11 05:50:51;;;;;;;15.97;10.53;;;-3.10;99.90;;;;;;5071569;28;20444;-48
2023/02/11 05:53:18;;;;;;;17.93;10.87;;;-3.20;99.90;;;;;;5069418;28;20540;-48
2023/02/11 05:55:45;;;;;;;16.20;10.53;;;-3.10;99.90;;;;;;5071196;28;20260;-48
2023/02/11 05:58:12;;;;;;;18.70;10.90;;;-3.00;99.90;;;;;;5071152;28;20487;-48
2023/02/11 06:00:39;;;;;;;18.27;12.70;;;-3.10;99.90;;;;;;5071475;28;20452;-48
2023/02/11 06:03:06;;;;;;;13.13;9.40;;;-3.10;99.90;;;;;;5070221;28;20465;-48
2023/02/11 06:05:34;;;;;;;15.50;10.80;;;-3.10;99.90;;;;;;5071205;28;20205;-48
2023/02/11 06:08:02;;;;;;;16.17;10.43;;;-3.10;99.90;;;;;;5071037;28;20461;-48
2023/02/11 06:10:30;;;;;;;23.20;13.20;;;-3.10;99.90;;;;;;5070550;28;20469;-48
2023/02/11 06:12:57;;;;;;;22.13;12.77;;;-3.10;99.90;;;;;;5069936;28;20195;-48
2023/02/11 06:15:23;;;;;;;23.77;14.27;;;-3.10;99.90;;;;;;5070310;28;20533;-48
2023/02/11 06:17:50;;;;;;;19.50;11.63;;;-3.10;99.90;;;;;;5069977;28;20626;-48
2023/02/11 06:20:18;;;;;;;21.83;13.17;;;-3.10;99.90;;;;;;5070740;28;20443;-48
2023/02/11 06:22:45;;;;;;;19.23;11.43;;;-3.10;99.90;;;;;;5071021;28;20590;-48
2023/02/11 06:25:13;;;;;;;21.93;12.17;;;-3.20;99.90;;;;;;5070517;28;20447;-48
2023/02/11 06:27:40;;;;;;;18.67;11.67;;;-3.20;99.90;;;;;;5067728;28;20471;-48
2023/02/11 06:30:09;;;;;;;22.87;12.80;;;-3.20;99.90;;;;;;5070917;28;20436;-48
2023/02/11 06:32:36;;;;;;;21.90;13.00;;;-3.30;99.90;;;;;;5051078;28;20446;-48
2023/02/11 06:35:03;;;;;;;21.07;13.43;;;-3.30;99.90;;;;;;5050565;28;20444;-48
2023/02/11 06:37:30;;;;;;;23.40;13.80;;;-3.30;99.90;;;;;;5066959;28;20480;-48
2023/02/11 06:39:57;;;;;;;21.23;12.33;;;-3.30;99.90;;;;;;5070821;28;20790;-48
2023/02/11 06:42:25;;;;;;;21.13;11.53;;;-3.30;99.90;;;;;;5070315;28;20452;-48
2023/02/11 06:44:52;;;;;;;20.00;11.67;;;-3.30;99.90;;;;;;5067346;28;22030;-48
2023/02/11 06:47:19;;;;;;;22.53;13.57;;;-3.30;99.90;;;;;;5070271;28;20980;-48
2023/02/11 06:49:46;;;;;;;24.03;14.20;;;-3.20;99.90;;;;;;5070663;28;20444;-48
2023/02/11 06:52:13;;;;;;;27.27;16.97;;;-3.20;99.90;;;;;;5070525;28;20459;-48
2023/02/11 06:54:40;;;;;;;27.10;15.67;;;-3.20;99.90;;;;;;5069296;28;20463;-49
2023/02/11 06:57:07;;;;;;;22.90;15.43;;;-3.20;99.90;;;;;;5068269;28;20923;-48
2023/02/11 06:59:35;;;;;;;25.97;14.67;;;-3.20;99.90;;;;;;5070292;28;20456;-48
2023/02/11 07:02:02;;;;;;;26.03;13.40;;;-3.10;99.90;;;;;;5069421;28;20515;-48
2023/02/11 07:04:29;;;;;;;18.47;12.17;;;-3.00;99.90;;;;;;5069408;28;20518;-49
2023/02/11 07:06:56;;;;;;;21.13;13.47;;;-3.00;99.90;;;;;;5068897;28;20533;-48
2023/02/11 07:09:23;;;;;;;23.50;14.10;;;-2.90;99.90;;;;;;5070424;28;20444;-48
2023/02/11 07:11:50;;;;;;;22.90;12.93;;;-2.80;99.90;;;;;;5060297;28;20512;-48
2023/02/11 07:14:17;;;;;;;23.47;13.57;;;-2.80;99.90;;;;;;5069093;28;20864;-48
2023/02/11 07:16:45;;;;;;;21.37;12.80;;;-2.70;99.90;;;;;;5067812;28;20842;-48
2023/02/11 07:19:12;;;;;;;25.70;10.97;;;-2.60;99.90;;;;;;5069690;28;20479;-47
2023/02/11 07:21:39;;;;;;;17.33;10.20;;;-2.50;99.90;;;;;;5069271;28;20513;-48
2023/02/11 07:24:07;;;;;;;14.80;8.87;;;-2.50;99.90;;;;;;5070063;28;20501;-48
2023/02/11 07:26:35;;;;;;;13.23;8.50;;;-2.30;99.90;;;;;;5069982;28;20440;-48
2023/02/11 07:29:02;;;;;;;12.30;8.20;;;-2.40;99.90;;;;;;5070263;28;20546;-48
2023/02/11 07:31:30;;;;;;;18.63;8.00;;;-2.30;99.90;;;;;;5076671;28;20451;-48
2023/02/11 07:34:00;;;;;;;17.77;9.30;;;-2.20;99.90;;;;;;5067795;28;20456;-48
2023/02/11 07:36:28;;;;;;;20.67;9.90;;;-2.20;99.90;;;;;;5062874;28;20939;-48
2023/02/11 07:38:55;;;;;;;22.17;9.03;;;-2.30;99.90;;;;;;5070087;28;20490;-48
2023/02/11 07:41:23;;;;;;;14.93;8.90;;;-2.20;99.90;;;;;;5078652;28;21027;-48
2023/02/11 07:43:50;;;;;;;12.63;8.97;;;-2.20;99.90;;;;;;5093305;28;20431;-47
2023/02/11 07:46:20;;;;;;;15.23;9.77;;;-2.20;99.90;;;;;;5086558;28;20456;-48
2023/02/11 07:48:47;;;;;;;15.50;8.97;;;-2.20;99.90;;;;;;5077534;28;20471;-48
2023/02/11 07:51:18;;;;;;;11.37;7.17;;;-2.10;99.90;;;;;;5067824;28;20517;-48
2023/02/11 07:53:45;;;;;;;9.57;6.53;;;-2.00;99.90;;;;;;5071836;28;20211;-48
2023/02/11 07:56:14;;;;;;;9.00;5.67;;;-1.90;99.90;;;;;;5073615;28;20847;-48
2023/02/11 07:58:42;;;;;;;15.07;6.77;;;-1.90;99.90;;;;;;5073493;28;21054;-48
2023/02/11 08:01:12;;;;;;;11.93;6.90;;;-1.70;99.90;;;;;;5071063;28;21058;-48
2023/02/11 08:03:40;;;;;;;11.10;6.80;;;-1.50;99.90;;;;;;5073609;28;20440;-48
2023/02/11 08:06:09;;;;;;;11.37;7.30;;;-1.40;99.90;;;;;;5072130;28;20457;-48
2023/02/11 08:08:38;;;;;;;11.33;8.07;;;-1.30;99.90;;;;;;5065744;28;20213;-48
2023/02/11 08:11:10;;;;;;;10.63;7.17;;;-1.00;99.90;;;;;;5073191;28;20247;-48
2023/02/11 08:13:37;;;;;;;11.83;7.10;;;-0.30;99.90;;;;;;5070240;28;20194;-49
2023/02/11 08:16:05;;;;;;;13.10;9.37;;;0.60;99.90;;;;;;5073308;28;20587;-49
2023/02/11 08:18:33;;;;;;;12.53;8.93;;;1.40;99.90;;;;;;5072626;28;20693;-49
2023/02/11 08:21:05;;;;;;;11.80;8.73;;;1.30;99.90;;;;;;5069864;28;20203;-48
2023/02/11 08:23:32;;;;;;;12.10;7.83;;;1.10;99.90;;;;;;5070185;28;20207;-49
2023/02/11 08:26:03;;;;;;;10.07;8.03;;;0.80;99.90;;;;;;5065807;28;20232;-49
2023/02/11 08:28:31;;;;;;;8.33;7.30;;;0.70;99.90;;;;;;5067586;28;20698;-47
2023/02/11 08:30:57;;;;;;;10.37;7.20;;;0.50;99.90;;;;;;5071813;28;20622;-48
2023/02/11 08:33:25;;;;;;;10.83;7.20;;;0.50;99.90;;;;;;5072170;28;20249;-48
2023/02/11 08:35:53;;;;;;;10.43;6.57;;;0.40;99.90;;;;;;5067445;28;20214;-48
2023/02/11 08:38:20;;;;;;;10.90;7.47;;;0.30;99.90;;;;;;5062681;28;20449;-48
2023/02/11 08:40:48;;;;;;;10.50;7.13;;;0.20;99.90;;;;;;5067765;28;20203;-49
2023/02/11 08:43:16;;;;;;;13.23;7.63;;;0.20;99.90;;;;;;5070327;28;20197;-48
2023/02/11 08:45:44;;;;;;;9.27;6.27;;;0.40;99.90;;;;;;5069307;28;20207;-49
2023/02/11 08:48:12;;;;;;;8.30;6.43;;;0.50;99.90;;;;;;5065921;28;20217;-49
2023/02/11 08:50:39;;;;;;;10.93;6.70;;;0.70;99.90;;;;;;5067151;28;20232;-48
2023/02/11 08:53:06;;;;;;;7.53;6.73;;;0.70;99.90;;;;;;5070382;28;20265;-49
2023/02/11 08:55:33;;;;;;;7.60;5.60;;;0.80;99.90;;;;;;5070224;28;20270;-48
2023/02/11 08:58:00;;;;;;;8.37;5.37;;;0.90;99.90;;;;;;5089403;22;20213;-48
2023/02/11 09:00:29;;;;;;;8.67;5.77;;;1.00;99.90;;;;;;5040026;28;20199;-47
2023/02/11 09:02:57;;;;;;;8.53;5.87;;;1.40;99.90;;;;;;5036831;28;20269;-47
2023/02/11 09:05:24;;;;;;;4.33;3.90;;;2.00;99.90;;;;;;5029564;28;20234;-47
2023/02/11 09:07:51;;;;;;;5.33;4.83;;;2.80;99.90;;;;;;5027626;28;20199;-47
2023/02/11 09:10:18;;;;;;;4.57;3.53;;;3.70;99.90;;;;;;5032545;28;20208;-47
2023/02/11 09:12:45;;;;;;;12.30;8.87;;;4.70;99.90;;;;;;5025996;28;20232;-47
2023/02/11 09:15:12;;;;;;;9.20;5.17;;;6.00;99.90;;;;;;5028160;28;20195;-46
2023/02/11 09:17:40;;;;;;;7.50;5.57;;;6.20;99.90;;;;;;5021550;28;20259;-46
2023/02/11 09:20:08;;;;;;;5.83;5.23;;;5.90;99.90;;;;;;5028128;28;20225;-48
2023/02/11 09:22:35;;;;;;;11.03;8.23;;;5.10;99.90;;;;;;5032557;28;20211;-48
2023/02/11 09:25:02;;;;;;;9.13;7.40;;;4.40;99.90;;;;;;5036597;28;20200;-48
2023/02/11 09:27:32;;;;;;;9.63;7.43;;;4.10;99.90;;;;;;5027462;28;20732;-47
2023/02/11 09:30:00;;;;;;;7.77;6.87;;;3.70;99.90;;;;;;5029598;28;20269;-47
2023/02/11 09:32:27;;;;;;;11.10;7.07;;;3.50;99.90;;;;;;5036613;28;20658;-47
2023/02/11 09:34:55;;;;;;;7.30;6.03;;;3.40;99.90;;;;;;5032611;28;20200;-47
2023/02/11 09:37:22;;;;;;;8.77;6.93;;;3.30;99.90;;;;;;5035277;28;20767;-47
2023/02/11 09:39:49;;;;;;;6.83;5.80;;;3.20;99.90;;;;;;5026562;28;20277;-47
2023/02/11 09:42:36;;;;;;;7.87;5.37;;;3.20;99.90;;;;;;5021755;28;20209;-48
2023/02/11 09:45:05;;;;;;;4.23;3.83;;;3.20;99.90;;;;;;5022783;28;20257;-46
2023/02/11 09:47:34;;;;;;;6.77;4.37;;;3.10;99.90;;;;;;5040200;28;20226;-48
2023/02/11 09:50:05;;;;;;;9.10;5.07;;;3.00;99.90;;;;;;5029856;28;20272;-46
2023/02/11 09:52:40;;;;;;;8.50;5.27;;;3.10;99.90;;;;;;5032245;28;20674;-47
2023/02/11 09:55:17;;;;;;;9.00;5.83;;;3.10;99.90;;;;;;5029732;28;20200;-48
2023/02/11 09:57:44;;;;;;;10.20;5.93;;;3.20;99.90;;;;;;5034643;28;20208;-47
2023/02/11 10:00:19;;;;;;;5.97;5.57;;;3.10;99.90;;;;;;5026739;28;20265;-47
2023/02/11 10:03:09;;;;;;;11.20;6.43;;;3.20;99.90;;;;;;5042247;28;20233;-47
2023/02/11 10:05:50;;;;;;;9.63;6.93;;;3.40;99.90;;;;;;5009443;28;20201;-47
2023/02/11 10:08:27;;;;;;;8.80;7.40;;;3.60;99.90;;;;;;5039173;28;20294;-47
2023/02/11 10:10:59;;;;;;;14.27;9.57;;;3.60;99.90;;;;;;5026738;28;20579;-46
2023/02/11 10:13:43;;;;;;;17.03;12.93;;;3.90;99.90;;;;;;5034360;28;20207;-47
2023/02/11 10:16:25;;;;;;;24.43;13.83;;;4.10;99.90;;;;;;5033504;28;20631;-47
2023/02/11 10:19:13;;;;;;;18.87;12.97;;;4.20;99.90;;;;;;5028693;28;20236;-47
2023/02/11 10:21:51;;;;;;;17.27;12.50;;;4.40;99.90;;;;;;5020485;28;20630;-47
2023/02/11 10:24:19;;;;;;;20.17;13.07;;;4.70;99.90;;;;;;5027354;28;20247;-47
2023/02/11 10:26:47;;;;;;;16.47;12.47;;;4.80;99.90;;;;;;5028229;28;20619;-47
2023/02/11 10:29:30;;;;;;;14.13;10.67;;;4.80;99.90;;;;;;5026267;28;20282;-47
2023/02/11 10:31:59;;;;;;;16.07;10.67;;;4.70;99.90;;;;;;5030061;28;20202;-47
2023/02/11 10:34:26;;;;;;;15.60;10.50;;;4.60;99.90;;;;;;5026419;28;20256;-47
2023/02/11 10:36:54;;;;;;;15.83;12.10;;;4.60;99.90;;;;;;5036782;28;20881;-47
2023/02/11 10:39:23;;;;;;;17.30;11.63;;;4.70;99.90;;;;;;5029991;28;20270;-47
2023/02/11 10:41:54;;;;;;;19.23;12.93;;;4.80;99.90;;;;;;5031515;28;20217;-47
2023/02/11 10:44:27;;;;;;;15.77;11.33;;;4.90;99.90;;;;;;5027740;28;20257;-46
2023/02/11 10:46:56;;;;;;;14.60;11.17;;;4.80;99.90;;;;;;5042195;28;20195;-47
2023/02/11 10:49:38;;;;;;;14.53;10.10;;;4.80;99.90;;;;;;5038073;28;20694;-47
2023/02/11 10:52:17;;;;;;;12.40;10.57;;;4.80;99.90;;;;;;5024891;28;20201;-48
2023/02/11 10:55:01;;;;;;;21.07;13.53;;;4.80;99.90;;;;;;5038977;28;20665;-47
2023/02/11 10:57:36;;;;;;;18.70;13.90;;;4.80;99.90;;;;;;5039646;28;20227;-47
2023/02/11 11:00:19;;;;;;;23.23;14.33;;;4.80;99.90;;;;;;5022343;28;22077;-48
2023/02/11 11:02:54;;;;;;;18.70;13.03;;;4.90;99.90;;;;;;5037075;28;20626;-47
2023/02/11 11:05:28;;;;;;;21.93;13.33;;;4.90;99.90;;;;;;5026182;28;20211;-47
2023/02/11 11:07:58;;;;;;;19.43;14.17;;;4.90;99.90;;;;;;5033265;28;21076;-47
2023/02/11 11:10:46;;;;;;;18.83;15.20;;;4.90;99.90;;;;;;5030447;28;20243;-47
2023/02/11 11:13:29;;;;;;;17.27;12.57;;;4.90;99.90;;;;;;5026598;28;20198;-47
2023/02/11 11:16:23;;;;;;;18.50;13.23;;;5.00;99.90;;;;;;5028227;28;20274;-48
2023/02/11 11:18:51;;;;;;;18.67;13.50;;;5.00;99.90;;;;;;5022260;28;20232;-48
2023/02/11 11:21:22;;;;;;;21.03;14.33;;;4.90;99.90;;;;;;5029006;28;20203;-48
2023/02/11 11:24:02;;;;;;;18.90;14.17;;;5.00;99.90;;;;;;5033445;28;20255;-47
2023/02/11 11:26:40;;;;;;;17.10;11.80;;;5.00;99.90;;;;;;5024637;28;20572;-48
2023/02/11 11:29:11;;;;;;;17.90;13.53;;;5.00;99.90;;;;;;5015280;28;20275;-47
2023/02/11 11:31:48;;;;;;;21.07;13.90;;;5.00;99.90;;;;;;5033105;28;20204;-47
2023/02/11 11:34:23;;;;;;;19.40;12.33;;;5.20;99.90;;;;;;5040410;28;20304;-46
2023/02/11 11:36:50;;;;;;;20.90;13.80;;;5.30;99.90;;;;;;5043170;28;20203;-47
2023/02/11 11:39:23;;;;;;;15.93;12.57;;;5.20;99.90;;;;;;5033805;28;20280;-47
2023/02/11 11:41:52;;;;;;;11.07;9.73;;;5.00;99.90;;;;;;5035736;28;20210;-47
2023/02/11 11:44:26;;;;;;;15.57;11.10;;;5.10;99.90;;;;;;5034663;28;20205;-47
2023/02/11 11:47:23;;;;;;;16.13;10.13;;;5.10;99.90;;;;;;5036300;28;20198;-48
2023/02/11 11:50:13;;;;;;;16.07;10.13;;;5.30;99.90;;;;;;5027800;28;20247;-47
2023/02/11 11:52:46;;;;;;;16.93;11.63;;;5.70;99.90;;;;;;5032835;28;20205;-47
2023/02/11 11:55:20;;;;;;;20.43;11.47;;;5.70;99.90;;;;;;5037908;28;20206;-47
2023/02/11 11:57:48;;;;;;;15.80;11.30;;;5.80;99.90;;;;;;5023773;28;20687;-46
2023/02/11 12:00:19;;;;;;;15.43;11.20;;;5.70;99.90;;;;;;5018243;28;20294;-46
2023/02/11 12:03:18;;;;;;;16.67;12.13;;;5.60;99.90;;;;;;5032902;28;20234;-48
2023/02/11 12:05:55;;;;;;;25.87;11.43;;;5.70;99.90;;;;;;5035406;28;20307;-48
2023/02/11 12:08:32;;;;;;;15.90;12.07;;;5.70;99.90;;;;;;5026959;28;20217;-47
2023/02/11 12:11:09;;;;;;;17.13;12.37;;;5.70;99.90;;;;;;5020780;28;20209;-48
2023/02/11 12:13:47;;;;;;;20.03;14.07;;;5.50;99.90;;;;;;5029497;28;20265;-46
2023/02/11 12:16:25;;;;;;;19.95;14.52;;;5.40;99.90;;;;;;5036220;28;20445;-47
2023/02/11 12:19:39;;;;;;;21.43;14.80;;;5.30;99.90;;;;;;5026133;28;20221;-48
2023/02/11 12:22:11;;;;;;;22.40;14.60;;;5.20;99.90;;;;;;4964361;28;20303;-46
2023/02/11 12:24:53;;;;;;;25.23;15.50;;;5.00;99.90;;;;;;5008881;28;20307;-49
2023/02/11 12:27:35;;;;;;;20.10;14.07;;;5.00;99.90;;;;;;5017356;28;20208;-47
2023/02/11 12:30:16;;;;;;;19.37;13.87;;;5.10;99.90;;;;;;5038678;28;20211;-47
2023/02/11 12:32:54;;;;;;;20.50;15.43;;;5.10;99.90;;;;;;5023720;28;20212;-47
2023/02/11 12:35:33;;;;;;;16.80;13.63;;;5.40;99.90;;;;;;5029306;28;20197;-47
2023/02/11 12:38:23;;;;;;;20.17;13.97;;;5.70;99.90;;;;;;5033287;28;20235;-47
2023/02/11 12:41:01;;;;;;;21.60;13.97;;;5.80;99.90;;;;;;5013315;28;20216;-48
2023/02/11 12:43:35;;;;;;;21.50;14.10;;;6.10;99.90;;;;;;5013187;28;20200;-47
2023/02/11 12:46:33;;;;;;;18.70;13.20;;;6.10;99.90;;;;;;5027511;28;20291;-46
2023/02/11 12:49:25;;;;;;;22.57;13.67;;;6.40;99.90;;;;;;5007875;28;20282;-48
2023/02/11 12:52:17;;;;;;;21.97;14.47;;;6.60;99.90;;;;;;5018037;28;20267;-46
2023/02/11 12:54:49;;;;;;;21.30;13.80;;;6.70;99.90;;;;;;5043869;28;20588;-48
2023/02/11 12:57:21;;;;;;;21.00;15.20;;;6.80;99.90;;;;;;5018069;28;20211;-47
2023/02/11 12:59:58;;;;;;;20.90;15.53;;;6.60;99.90;;;;;;5021316;28;20237;-48
2023/02/11 13:02:36;;;;;;;23.13;16.37;;;6.50;99.90;;;;;;5041319;28;20200;-47